KLYO/LYO METAR and TAF weather

Enter ICAO airport designator
Station Type Date Time Source
KLYO METAR 2018/12/15 22:35 UTC NOAA

KLYO 152235Z AUTO 15008KT 10SM CLR 08/M08 A3011 RMK AO2 T00781081


Station Type Date Time Source
KLYO Decoded METAR 2018/12/15 22:35 UTC NOAA

Station name not available
Dec 15, 2018 - 05:35 PM EST / 2018.12.15 2235 UTC
Wind: from the SSE (150 degrees) at 9 MPH (8 KT):0
Visibility: 10 mile(s):0
Sky conditions: clear
Temperature: 46.0 F (7.8 C)
Dew Point: 17.4 F (-8.1 C)
Relative Humidity: 31%
Pressure (altimeter): 30.11 in. Hg (1019 hPa)
ob: KLYO 152235Z AUTO 15008KT 10SM CLR 08/M08 A3011 RMK AO2 T00781081
cycle: 22

Station Type Date Time Source
KLYO TAF UTC NOAA

Error!


Example: see airport list